0F2

Bowie Municipal Airport

Bowie, Texas, USA
METAR K0F2 210555Z AUTO 00000KT 10SM CLR 01/M01 A3035 RMK AO2 T00091007 10086 20004 401400000
Observed Flight Rules
Nov-21 @ 05:55 UTC (6 minutes ago) Visual Flight Rules
Visibility Clouds
10 miles
  • Clear skies
Temperatures Readings
Current 1°C / 34°F
Dewpoint -1°C / 30°F
Humidity 87%
Altimeter 30.35" Hg
Pressure 1028 hPa
Elevation 336
METAR K0F2 210555Z AUTO 00000KT 10SM CLR 01/M01 A3035 RMK AO2 T00091007 10086 20004 401400000
Observed Flight Rules
Nov-21 @ 05:55 UTC
(6 minutes ago)
VFR
Clouds
  • Clear skies
Temperature Dewpoint
1°C / 34°F -1°C / 30°F
Humidity Altimeter Pressure
87% 30.35" Hg 1028 hPa